Ncc Rabigh — HZQA — position and weather

sailwx.info

Track history (hours):
 
Tides and Currents Weather Stations Pressure Air Temp Water Temp Dewpoint Dewpoint Depression Visibility Wind Speed Wind Dir Waves Ship Positions

Ncc Rabigh

Last reported at 2014-Oct-26 09:04 UTC. Time now 2014-Oct-26 09:39 UTC.
Position N 51°42' E 002°33'.

Length 183 m; draft 9.6 m.

Type: Tanker. MMSI: 403575000.

Date/timePositionNaut miles runAvg speedWind from/ knotsBaromVisibWave heightAir tempDewpointWater temp
2014-Oct-26 09:04N 51°42' E 002°33'611.4
2014-Oct-26 08:33N 51°38' E 002°26'1211.9
2014-Oct-26 07:34N 51°29' E 002°14'9 8.7
2014-Oct-26 06:34N 51°21' E 002°20'1513.0
2014-Oct-26 05:26N 51°23' E 002°43'1112.6
2014-Oct-26 04:32N 51°24' E 003°01'1313.3
2014-Oct-26 03:34N 51°25' E 003°22'1110.9
2014-Oct-26 02:34N 51°26' E 003°39'1010.2
2014-Oct-26 01:33N 51°21' E 003°53'6 6.1
2014-Oct-26 00:34N 51°24' E 004°02'7 7.5
2014-Oct-25 23:33N 51°22' E 004°14'6 6.1
2014-Oct-25 22:34N 51°16' E 004°17'0 0.4
2014-Oct-25 21:34N 51°16' E 004°17'2 2.1
2014-Oct-25 20:32N 51°17' E 004°14'0 0.0
2014-Oct-25 19:32N 51°17' E 004°14'0 0.0
2014-Oct-25 18:32N 51°17' E 004°14'0 0.0
2014-Oct-25 17:32N 51°17' E 004°14'0 0.0
2014-Oct-25 16:32N 51°17' E 004°14'0 0.0
2014-Oct-25 15:29N 51°17' E 004°14'0 0.0
2014-Oct-25 14:32N 51°17' E 004°14'0 0.0
2014-Oct-25 13:32N 51°17' E 004°14'0 0.0
2014-Oct-25 12:32N 51°17' E 004°14'0 0.0
2014-Oct-25 11:32N 51°17' E 004°14'0 0.0
2014-Oct-25 10:23N 51°17' E 004°14'0 0.0
2014-Oct-25 09:17N 51°17' E 004°14'0 0.0
2014-Oct-25 06:17N 51°17' E 004°14'0 0.0
2014-Oct-24 17:23N 51°17' E 004°14'0 0.0
2014-Oct-24 11:29N 51°17' E 004°14'0 0.0
2014-Oct-24 09:29N 51°17' E 004°14'0 0.0
2014-Oct-24 07:17N 51°17' E 004°14'0 0.0
2014-Oct-24 06:26N 51°17' E 004°14'0 0.0
2014-Oct-24 03:17N 51°17' E 004°14'0 0.0
2014-Oct-24 02:23N 51°17' E 004°14'0 0.0
2014-Oct-24 01:29N 51°17' E 004°14'0 0.0
2014-Oct-24 00:17N 51°17' E 004°14'0 0.7
2014-Oct-23 23:33N 51°17' E 004°13'1 0.7
2014-Oct-23 22:33N 51°16' E 004°13'0 0.0
2014-Oct-23 21:33N 51°16' E 004°13'0 0.0
2014-Oct-23 20:33N 51°16' E 004°13'0 0.0
2014-Oct-23 19:24N 51°16' E 004°13'0 0.0
2014-Oct-23 18:33N 51°16' E 004°13'0 0.0
2014-Oct-23 17:30N 51°16' E 004°13'0 0.0
2014-Oct-23 16:33N 51°16' E 004°13'0 0.0
2014-Oct-23 15:24N 51°16' E 004°13'0 0.0
2014-Oct-23 14:33N 51°16' E 004°13'0 0.0
2014-Oct-23 13:24N 51°16' E 004°13'0 0.0
2014-Oct-23 12:33N 51°16' E 004°13'0 0.0
2014-Oct-23 11:33N 51°16' E 004°13'0 0.0
2014-Oct-23 10:33N 51°16' E 004°13'0 0.0
2014-Oct-23 09:30N 51°16' E 004°13'0 0.0
2014-Oct-23 08:30N 51°16' E 004°13'0 0.0
2014-Oct-23 07:27N 51°16' E 004°13'0 0.0
2014-Oct-23 06:24N 51°16' E 004°13'0 0.0
2014-Oct-23 05:24N 51°16' E 004°13'0 0.0
2014-Oct-23 04:30N 51°16' E 004°13'0 0.0
2014-Oct-23 03:30N 51°16' E 004°13'0 0.0
2014-Oct-23 02:27N 51°16' E 004°13'0 0.0
2014-Oct-23 01:33N 51°16' E 004°13'0 0.0
2014-Oct-23 00:33N 51°16' E 004°13'0 0.0
2014-Oct-22 23:33N 51°16' E 004°13'0 0.0
2014-Oct-22 22:33N 51°16' E 004°13'0 0.0
2014-Oct-22 21:33N 51°16' E 004°13'0 0.0
2014-Oct-22 20:27N 51°16' E 004°13'0 0.0
2014-Oct-22 19:24N 51°16' E 004°13'0 0.0
2014-Oct-22 18:33N 51°16' E 004°13'0 0.0
2014-Oct-22 17:33N 51°16' E 004°13'0 0.0
2014-Oct-22 16:33N 51°16' E 004°13'0 0.0
2014-Oct-22 15:33N 51°16' E 004°13'0 0.0
2014-Oct-22 14:30N 51°16' E 004°13'0 0.0
2014-Oct-22 13:33N 51°16' E 004°13'0 0.0
2014-Oct-22 12:27N 51°16' E 004°13'0 0.0
2014-Oct-22 11:18N 51°16' E 004°13'0 0.0
2014-Oct-22 10:33N 51°16' E 004°13'0 0.0
2014-Oct-22 09:30N 51°16' E 004°13'0 0.0
2014-Oct-22 08:33N 51°16' E 004°13'0 0.0
2014-Oct-22 07:30N 51°16' E 004°13'0 0.0
2014-Oct-22 06:33N 51°16' E 004°13'0 0.0
2014-Oct-22 05:33N 51°16' E 004°13'0 0.0
2014-Oct-22 04:33N 51°16' E 004°13'0 0.0
2014-Oct-22 03:33N 51°16' E 004°13'0 0.0
2014-Oct-22 02:27N 51°16' E 004°13'0 0.0
2014-Oct-22 01:33N 51°16' E 004°13'0 0.5
2014-Oct-22 00:34N 51°17' E 004°13'2 2.3
2014-Oct-21 23:33N 51°16' E 004°17'2 2.1
2014-Oct-21 22:34N 51°17' E 004°19'10 9.6
2014-Oct-21 21:34N 51°22' E 004°06'1010.0
2014-Oct-21 20:34N 51°21' E 003°50'1110.9
2014-Oct-21 19:34N 51°25' E 003°34'1110.9
2014-Oct-21 18:33N 51°24' E 003°17'1111.5
2014-Oct-21 17:33N 51°25' E 002°58'1110.7
2014-Oct-21 16:31N 51°22' E 002°41'4 3.4
2014-Oct-21 15:29N 51°24' E 002°37'7 7.1
2014-Oct-21 14:33N 51°21' E 002°28'1413.5
2014-Oct-21 13:33N 51°15' E 002°08'1010.4
2014-Oct-21 12:34N 51°10' E 001°54'1010.4
2014-Oct-21 11:34N 51°03' E 001°41'1313.0
2014-Oct-21 10:33N 50°54' E 001°28'1212.3
2014-Oct-21 09:33N 50°42' E 001°20'17112.2
2014-Oct-20 19:30N 49°49' W 002°55'  
2014-Oct-18 01:33N 38°23' W 009°51'1211.7
2014-Oct-18 00:33N 38°11' W 009°48'1212.0
2014-Oct-17 23:32N 37°60' W 009°44'1111.8
2014-Oct-17 22:34N 37°48' W 009°41'1211.5
2014-Oct-17 21:33N 37°37' W 009°38'1111.5
2014-Oct-17 20:33N 37°26' W 009°34'3810.9
2014-Oct-17 17:05N 36°49' W 009°23'2710.3
2014-Oct-17 14:26N 36°36' W 008°54'1411.3
2014-Oct-17 13:14N 36°31' W 008°38'14511.4
2014-Oct-17 00:29N 35°57' W 005°43'1010.4
2014-Oct-16 23:34N 35°58' W 005°32'10 9.7
2014-Oct-16 22:33N 36°05' W 005°23'5 5.0
2014-Oct-16 21:33N 36°10' W 005°24'0 0.1
2014-Oct-16 20:33N 36°10' W 005°24'0 0.1
2014-Oct-16 19:33N 36°10' W 005°24'0 0.0
2014-Oct-16 18:33N 36°10' W 005°24'0 0.1
2014-Oct-16 17:33N 36°10' W 005°24'0 0.3
2014-Oct-16 16:22N 36°11' W 005°24'  
Track history (hours):
 
Tides and Currents Weather Stations Pressure Air Temp Water Temp Dewpoint Dewpoint Depression Visibility Wind Speed Wind Dir Waves Ship Positions

Ncc Rabigh

Last reported at 2014-Oct-26 09:04 UTC. Time now 2014-Oct-26 09:39 UTC.
Position N 51°42' E 002°33'.

Length 183 m; draft 9.6 m.

Type: Tanker. MMSI: 403575000.

Date/timePositionNaut miles runAvg speedWind from/ knotsBaromVisibWave heightAir tempDewpointWater temp
2014-Oct-26 09:04N 51°42' E 002°33'611.4
2014-Oct-26 08:33N 51°38' E 002°26'1211.9
2014-Oct-26 07:34N 51°29' E 002°14'9 8.7
2014-Oct-26 06:34N 51°21' E 002°20'1513.0
2014-Oct-26 05:26N 51°23' E 002°43'1112.6
2014-Oct-26 04:32N 51°24' E 003°01'1313.3
2014-Oct-26 03:34N 51°25' E 003°22'1110.9
2014-Oct-26 02:34N 51°26' E 003°39'1010.2
2014-Oct-26 01:33N 51°21' E 003°53'6 6.1
2014-Oct-26 00:34N 51°24' E 004°02'7 7.5
2014-Oct-25 23:33N 51°22' E 004°14'6 6.1
2014-Oct-25 22:34N 51°16' E 004°17'0 0.4
2014-Oct-25 21:34N 51°16' E 004°17'2 2.1
2014-Oct-25 20:32N 51°17' E 004°14'0 0.0
2014-Oct-25 19:32N 51°17' E 004°14'0 0.0
2014-Oct-25 18:32N 51°17' E 004°14'0 0.0
2014-Oct-25 17:32N 51°17' E 004°14'0 0.0
2014-Oct-25 16:32N 51°17' E 004°14'0 0.0
2014-Oct-25 15:29N 51°17' E 004°14'0 0.0
2014-Oct-25 14:32N 51°17' E 004°14'0 0.0
2014-Oct-25 13:32N 51°17' E 004°14'0 0.0
2014-Oct-25 12:32N 51°17' E 004°14'0 0.0
2014-Oct-25 11:32N 51°17' E 004°14'0 0.0
2014-Oct-25 10:23N 51°17' E 004°14'0 0.0
2014-Oct-25 09:17N 51°17' E 004°14'0 0.0
2014-Oct-25 06:17N 51°17' E 004°14'0 0.0
2014-Oct-24 17:23N 51°17' E 004°14'0 0.0
2014-Oct-24 11:29N 51°17' E 004°14'0 0.0
2014-Oct-24 09:29N 51°17' E 004°14'0 0.0
2014-Oct-24 07:17N 51°17' E 004°14'0 0.0
2014-Oct-24 06:26N 51°17' E 004°14'0 0.0
2014-Oct-24 03:17N 51°17' E 004°14'0 0.0
2014-Oct-24 02:23N 51°17' E 004°14'0 0.0
2014-Oct-24 01:29N 51°17' E 004°14'0 0.0
2014-Oct-24 00:17N 51°17' E 004°14'0 0.7
2014-Oct-23 23:33N 51°17' E 004°13'1 0.7
2014-Oct-23 22:33N 51°16' E 004°13'0 0.0
2014-Oct-23 21:33N 51°16' E 004°13'0 0.0
2014-Oct-23 20:33N 51°16' E 004°13'0 0.0
2014-Oct-23 19:24N 51°16' E 004°13'0 0.0
2014-Oct-23 18:33N 51°16' E 004°13'0 0.0
2014-Oct-23 17:30N 51°16' E 004°13'0 0.0
2014-Oct-23 16:33N 51°16' E 004°13'0 0.0
2014-Oct-23 15:24N 51°16' E 004°13'0 0.0
2014-Oct-23 14:33N 51°16' E 004°13'0 0.0
2014-Oct-23 13:24N 51°16' E 004°13'0 0.0
2014-Oct-23 12:33N 51°16' E 004°13'0 0.0
2014-Oct-23 11:33N 51°16' E 004°13'0 0.0
2014-Oct-23 10:33N 51°16' E 004°13'0 0.0
2014-Oct-23 09:30N 51°16' E 004°13'0 0.0
2014-Oct-23 08:30N 51°16' E 004°13'0 0.0
2014-Oct-23 07:27N 51°16' E 004°13'0 0.0
2014-Oct-23 06:24N 51°16' E 004°13'0 0.0
2014-Oct-23 05:24N 51°16' E 004°13'0 0.0
2014-Oct-23 04:30N 51°16' E 004°13'0 0.0
2014-Oct-23 03:30N 51°16' E 004°13'0 0.0
2014-Oct-23 02:27N 51°16' E 004°13'0 0.0
2014-Oct-23 01:33N 51°16' E 004°13'0 0.0
2014-Oct-23 00:33N 51°16' E 004°13'0 0.0
2014-Oct-22 23:33N 51°16' E 004°13'0 0.0
2014-Oct-22 22:33N 51°16' E 004°13'0 0.0
2014-Oct-22 21:33N 51°16' E 004°13'0 0.0
2014-Oct-22 20:27N 51°16' E 004°13'0 0.0
2014-Oct-22 19:24N 51°16' E 004°13'0 0.0
2014-Oct-22 18:33N 51°16' E 004°13'0 0.0
2014-Oct-22 17:33N 51°16' E 004°13'0 0.0
2014-Oct-22 16:33N 51°16' E 004°13'0 0.0
2014-Oct-22 15:33N 51°16' E 004°13'0 0.0
2014-Oct-22 14:30N 51°16' E 004°13'0 0.0
2014-Oct-22 13:33N 51°16' E 004°13'0 0.0
2014-Oct-22 12:27N 51°16' E 004°13'0 0.0
2014-Oct-22 11:18N 51°16' E 004°13'0 0.0
2014-Oct-22 10:33N 51°16' E 004°13'0 0.0
2014-Oct-22 09:30N 51°16' E 004°13'0 0.0
2014-Oct-22 08:33N 51°16' E 004°13'0 0.0
2014-Oct-22 07:30N 51°16' E 004°13'0 0.0
2014-Oct-22 06:33N 51°16' E 004°13'0 0.0
2014-Oct-22 05:33N 51°16' E 004°13'0 0.0
2014-Oct-22 04:33N 51°16' E 004°13'0 0.0
2014-Oct-22 03:33N 51°16' E 004°13'0 0.0
2014-Oct-22 02:27N 51°16' E 004°13'0 0.0
2014-Oct-22 01:33N 51°16' E 004°13'0 0.5
2014-Oct-22 00:34N 51°17' E 004°13'2 2.3
2014-Oct-21 23:33N 51°16' E 004°17'2 2.1
2014-Oct-21 22:34N 51°17' E 004°19'10 9.6
2014-Oct-21 21:34N 51°22' E 004°06'1010.0
2014-Oct-21 20:34N 51°21' E 003°50'1110.9
2014-Oct-21 19:34N 51°25' E 003°34'1110.9
2014-Oct-21 18:33N 51°24' E 003°17'1111.5
2014-Oct-21 17:33N 51°25' E 002°58'1110.7
2014-Oct-21 16:31N 51°22' E 002°41'4 3.4
2014-Oct-21 15:29N 51°24' E 002°37'7 7.1
2014-Oct-21 14:33N 51°21' E 002°28'1413.5
2014-Oct-21 13:33N 51°15' E 002°08'1010.4
2014-Oct-21 12:34N 51°10' E 001°54'1010.4
2014-Oct-21 11:34N 51°03' E 001°41'1313.0
2014-Oct-21 10:33N 50°54' E 001°28'1212.3
2014-Oct-21 09:33N 50°42' E 001°20'17112.2
2014-Oct-20 19:30N 49°49' W 002°55'  
2014-Oct-18 01:33N 38°23' W 009°51'1211.7
2014-Oct-18 00:33N 38°11' W 009°48'1212.0
2014-Oct-17 23:32N 37°60' W 009°44'1111.8
2014-Oct-17 22:34N 37°48' W 009°41'1211.5
2014-Oct-17 21:33N 37°37' W 009°38'1111.5
2014-Oct-17 20:33N 37°26' W 009°34'3810.9
2014-Oct-17 17:05N 36°49' W 009°23'2710.3
2014-Oct-17 14:26N 36°36' W 008°54'1411.3
2014-Oct-17 13:14N 36°31' W 008°38'14511.4
2014-Oct-17 00:29N 35°57' W 005°43'1010.4
2014-Oct-16 23:34N 35°58' W 005°32'10 9.7
2014-Oct-16 22:33N 36°05' W 005°23'5 5.0
2014-Oct-16 21:33N 36°10' W 005°24'0 0.1
2014-Oct-16 20:33N 36°10' W 005°24'0 0.1
2014-Oct-16 19:33N 36°10' W 005°24'0 0.0
2014-Oct-16 18:33N 36°10' W 005°24'0 0.1
2014-Oct-16 17:33N 36°10' W 005°24'0 0.3
2014-Oct-16 16:22N 36°11' W 005°24'  

Dump ship's entire track history